sensor_id;sensor_type;location;lat;lon;timestamp;temperature;humidity
2783;DHT22;1399;47.072;15.452;2023-06-10T00:01:51;18.30;92.30
2783;DHT22;1399;47.072;15.452;2023-06-10T00:04:20;18.30;92.30
2783;DHT22;1399;47.072;15.452;2023-06-10T00:06:46;18.30;92.30
2783;DHT22;1399;47.072;15.452;2023-06-10T00:09:14;18.30;92.30
2783;DHT22;1399;47.072;15.452;2023-06-10T00:11:41;18.30;92.30
2783;DHT22;1399;47.072;15.452;2023-06-10T00:14:07;18.30;92.30
2783;DHT22;1399;47.072;15.452;2023-06-10T00:16:34;18.30;92.30
2783;DHT22;1399;47.072;15.452;2023-06-10T00:19:02;18.20;92.20
2783;DHT22;1399;47.072;15.452;2023-06-10T00:21:30;18.20;92.30
2783;DHT22;1399;47.072;15.452;2023-06-10T00:23:56;18.20;92.30
2783;DHT22;1399;47.072;15.452;2023-06-10T00:26:22;18.20;92.30
2783;DHT22;1399;47.072;15.452;2023-06-10T00:28:48;18.20;92.40
2783;DHT22;1399;47.072;15.452;2023-06-10T00:31:15;18.20;92.30
2783;DHT22;1399;47.072;15.452;2023-06-10T00:33:41;18.20;92.30
2783;DHT22;1399;47.072;15.452;2023-06-10T00:36:07;18.10;92.30
2783;DHT22;1399;47.072;15.452;2023-06-10T00:38:32;18.10;92.30
2783;DHT22;1399;47.072;15.452;2023-06-10T00:40:59;18.10;92.30
2783;DHT22;1399;47.072;15.452;2023-06-10T00:43:25;18.10;92.30
2783;DHT22;1399;47.072;15.452;2023-06-10T00:45:51;18.10;92.30
2783;DHT22;1399;47.072;15.452;2023-06-10T00:48:18;18.10;92.30
2783;DHT22;1399;47.072;15.452;2023-06-10T00:50:45;18.10;92.30
2783;DHT22;1399;47.072;15.452;2023-06-10T00:53:12;18.00;92.30
2783;DHT22;1399;47.072;15.452;2023-06-10T00:55:40;18.00;92.30
2783;DHT22;1399;47.072;15.452;2023-06-10T00:58:06;18.00;92.40
2783;DHT22;1399;47.072;15.452;2023-06-10T01:00:32;18.00;92.40
2783;DHT22;1399;47.072;15.452;2023-06-10T01:02:58;18.00;92.40
2783;DHT22;1399;47.072;15.452;2023-06-10T01:05:24;18.00;92.50
2783;DHT22;1399;47.072;15.452;2023-06-10T01:10:47;17.90;92.40
2783;DHT22;1399;47.072;15.452;2023-06-10T01:13:16;17.90;92.50
2783;DHT22;1399;47.072;15.452;2023-06-10T01:15:44;17.90;92.50
2783;DHT22;1399;47.072;15.452;2023-06-10T01:18:10;17.90;92.50
2783;DHT22;1399;47.072;15.452;2023-06-10T01:20:41;17.90;92.60
2783;DHT22;1399;47.072;15.452;2023-06-10T01:23:09;17.90;92.50
2783;DHT22;1399;47.072;15.452;2023-06-10T01:25:53;17.90;92.50
2783;DHT22;1399;47.072;15.452;2023-06-10T01:28:32;17.80;92.50
2783;DHT22;1399;47.072;15.452;2023-06-10T01:34:00;17.80;92.50
2783;DHT22;1399;47.072;15.452;2023-06-10T01:36:28;17.80;92.50
2783;DHT22;1399;47.072;15.452;2023-06-10T01:38:55;17.80;92.50
2783;DHT22;1399;47.072;15.452;2023-06-10T01:41:22;17.80;92.50
2783;DHT22;1399;47.072;15.452;2023-06-10T01:43:48;17.80;92.50
2783;DHT22;1399;47.072;15.452;2023-06-10T01:46:15;17.80;92.50
2783;DHT22;1399;47.072;15.452;2023-06-10T01:48:45;17.70;92.50
2783;DHT22;1399;47.072;15.452;2023-06-10T01:51:11;17.70;92.50
2783;DHT22;1399;47.072;15.452;2023-06-10T01:53:36;17.70;92.50
2783;DHT22;1399;47.072;15.452;2023-06-10T01:56:02;17.70;92.50
2783;DHT22;1399;47.072;15.452;2023-06-10T01:58:28;17.70;92.50
2783;DHT22;1399;47.072;15.452;2023-06-10T02:00:54;17.70;92.50
2783;DHT22;1399;47.072;15.452;2023-06-10T02:03:19;17.70;92.50
2783;DHT22;1399;47.072;15.452;2023-06-10T02:05:45;17.70;92.50
2783;DHT22;1399;47.072;15.452;2023-06-10T02:08:11;17.70;92.50
2783;DHT22;1399;47.072;15.452;2023-06-10T02:10:37;17.60;92.50
2783;DHT22;1399;47.072;15.452;2023-06-10T02:13:02;17.60;92.40
2783;DHT22;1399;47.072;15.452;2023-06-10T02:15:28;17.60;92.40
2783;DHT22;1399;47.072;15.452;2023-06-10T02:17:54;17.60;92.80
2783;DHT22;1399;47.072;15.452;2023-06-10T02:20:20;17.60;92.40
2783;DHT22;1399;47.072;15.452;2023-06-10T02:22:46;17.60;92.30
2783;DHT22;1399;47.072;15.452;2023-06-10T02:25:12;17.60;92.30
2783;DHT22;1399;47.072;15.452;2023-06-10T02:27:38;17.60;92.30
2783;DHT22;1399;47.072;15.452;2023-06-10T02:30:04;17.60;92.30
2783;DHT22;1399;47.072;15.452;2023-06-10T02:32:30;17.50;92.30
2783;DHT22;1399;47.072;15.452;2023-06-10T02:34:56;17.50;92.30
2783;DHT22;1399;47.072;15.452;2023-06-10T02:37:21;17.50;92.30
2783;DHT22;1399;47.072;15.452;2023-06-10T02:39:47;17.50;92.20
2783;DHT22;1399;47.072;15.452;2023-06-10T02:42:16;17.50;92.20
2783;DHT22;1399;47.072;15.452;2023-06-10T02:44:42;17.50;92.20
2783;DHT22;1399;47.072;15.452;2023-06-10T02:47:08;17.50;92.20
2783;DHT22;1399;47.072;15.452;2023-06-10T02:49:33;17.50;92.20
2783;DHT22;1399;47.072;15.452;2023-06-10T02:51:59;17.50;92.60
2783;DHT22;1399;47.072;15.452;2023-06-10T02:54:25;17.50;92.20
2783;DHT22;1399;47.072;15.452;2023-06-10T02:56:52;17.40;92.20
2783;DHT22;1399;47.072;15.452;2023-06-10T02:59:20;17.40;92.10
2783;DHT22;1399;47.072;15.452;2023-06-10T03:01:46;17.40;92.20
2783;DHT22;1399;47.072;15.452;2023-06-10T03:04:12;17.40;92.10
2783;DHT22;1399;47.072;15.452;2023-06-10T03:06:41;17.40;92.20
2783;DHT22;1399;47.072;15.452;2023-06-10T03:09:07;17.40;92.20
2783;DHT22;1399;47.072;15.452;2023-06-10T03:11:34;17.40;92.20
2783;DHT22;1399;47.072;15.452;2023-06-10T03:14:00;17.40;92.20
2783;DHT22;1399;47.072;15.452;2023-06-10T03:16:27;17.40;92.20
2783;DHT22;1399;47.072;15.452;2023-06-10T03:18:53;17.40;92.50
2783;DHT22;1399;47.072;15.452;2023-06-10T03:21:19;17.40;92.10
2783;DHT22;1399;47.072;15.452;2023-06-10T03:23:46;17.40;92.10
2783;DHT22;1399;47.072;15.452;2023-06-10T03:26:11;17.40;92.10
2783;DHT22;1399;47.072;15.452;2023-06-10T03:28:40;17.40;92.00
2783;DHT22;1399;47.072;15.452;2023-06-10T03:31:06;17.40;92.00
2783;DHT22;1399;47.072;15.452;2023-06-10T03:33:32;17.40;92.00
2783;DHT22;1399;47.072;15.452;2023-06-10T03:35:58;17.40;91.90
2783;DHT22;1399;47.072;15.452;2023-06-10T03:38:24;17.40;91.90
2783;DHT22;1399;47.072;15.452;2023-06-10T03:40:50;17.40;91.90
2783;DHT22;1399;47.072;15.452;2023-06-10T03:43:17;17.40;91.90
2783;DHT22;1399;47.072;15.452;2023-06-10T03:45:43;17.40;91.90
2783;DHT22;1399;47.072;15.452;2023-06-10T03:48:08;17.40;91.80
2783;DHT22;1399;47.072;15.452;2023-06-10T03:50:35;17.50;91.80
2783;DHT22;1399;47.072;15.452;2023-06-10T03:53:02;17.50;91.80
2783;DHT22;1399;47.072;15.452;2023-06-10T03:55:28;17.50;91.80
2783;DHT22;1399;47.072;15.452;2023-06-10T03:57:53;17.50;91.80
2783;DHT22;1399;47.072;15.452;2023-06-10T04:00:20;17.50;91.80
2783;DHT22;1399;47.072;15.452;2023-06-10T04:02:47;17.50;91.70
2783;DHT22;1399;47.072;15.452;2023-06-10T04:05:19;17.50;91.70
2783;DHT22;1399;47.072;15.452;2023-06-10T04:07:47;17.50;91.60
2783;DHT22;1399;47.072;15.452;2023-06-10T04:10:15;17.50;91.60
2783;DHT22;1399;47.072;15.452;2023-06-10T04:12:41;17.50;91.60
2783;DHT22;1399;47.072;15.452;2023-06-10T04:15:08;17.60;91.60
2783;DHT22;1399;47.072;15.452;2023-06-10T04:17:34;17.50;91.50
2783;DHT22;1399;47.072;15.452;2023-06-10T04:20:00;17.60;91.50
2783;DHT22;1399;47.072;15.452;2023-06-10T04:22:26;17.60;91.50
2783;DHT22;1399;47.072;15.452;2023-06-10T04:24:53;17.60;91.40
2783;DHT22;1399;47.072;15.452;2023-06-10T04:27:19;17.60;91.40
2783;DHT22;1399;47.072;15.452;2023-06-10T04:29:45;17.60;91.40
2783;DHT22;1399;47.072;15.452;2023-06-10T04:32:11;17.70;91.40
2783;DHT22;1399;47.072;15.452;2023-06-10T04:34:37;17.70;91.40
2783;DHT22;1399;47.072;15.452;2023-06-10T04:37:05;17.70;91.40
2783;DHT22;1399;47.072;15.452;2023-06-10T04:39:31;17.80;91.40
2783;DHT22;1399;47.072;15.452;2023-06-10T04:41:58;17.80;91.40
2783;DHT22;1399;47.072;15.452;2023-06-10T04:44:24;17.80;91.30
2783;DHT22;1399;47.072;15.452;2023-06-10T04:46:50;17.80;91.30
2783;DHT22;1399;47.072;15.452;2023-06-10T04:49:16;17.90;91.30
2783;DHT22;1399;47.072;15.452;2023-06-10T04:51:42;17.90;91.20
2783;DHT22;1399;47.072;15.452;2023-06-10T04:54:08;18.00;91.30
2783;DHT22;1399;47.072;15.452;2023-06-10T04:56:34;18.10;91.30
2783;DHT22;1399;47.072;15.452;2023-06-10T04:59:00;18.10;91.20
2783;DHT22;1399;47.072;15.452;2023-06-10T05:01:26;18.20;91.20
2783;DHT22;1399;47.072;15.452;2023-06-10T05:03:53;18.30;91.00
2783;DHT22;1399;47.072;15.452;2023-06-10T05:06:19;18.30;90.80
2783;DHT22;1399;47.072;15.452;2023-06-10T05:08:45;18.40;90.70
2783;DHT22;1399;47.072;15.452;2023-06-10T05:11:11;18.50;90.70
2783;DHT22;1399;47.072;15.452;2023-06-10T05:13:37;18.50;90.60
2783;DHT22;1399;47.072;15.452;2023-06-10T05:16:03;18.60;90.60
2783;DHT22;1399;47.072;15.452;2023-06-10T05:18:29;18.60;90.50
2783;DHT22;1399;47.072;15.452;2023-06-10T05:20:55;18.70;90.50
2783;DHT22;1399;47.072;15.452;2023-06-10T05:23:21;18.70;90.40
2783;DHT22;1399;47.072;15.452;2023-06-10T05:25:47;18.80;90.40
2783;DHT22;1399;47.072;15.452;2023-06-10T05:28:13;18.80;90.40
2783;DHT22;1399;47.072;15.452;2023-06-10T05:30:39;18.90;90.50
2783;DHT22;1399;47.072;15.452;2023-06-10T05:33:05;19.00;90.50
2783;DHT22;1399;47.072;15.452;2023-06-10T05:35:31;19.00;90.40
2783;DHT22;1399;47.072;15.452;2023-06-10T05:37:57;19.00;90.30
2783;DHT22;1399;47.072;15.452;2023-06-10T05:40:23;19.00;90.30
2783;DHT22;1399;47.072;15.452;2023-06-10T05:42:49;19.10;90.20
2783;DHT22;1399;47.072;15.452;2023-06-10T05:45:15;19.10;90.10
2783;DHT22;1399;47.072;15.452;2023-06-10T05:47:41;19.10;90.00
2783;DHT22;1399;47.072;15.452;2023-06-10T05:50:07;19.10;89.80
2783;DHT22;1399;47.072;15.452;2023-06-10T05:52:35;19.10;89.50
2783;DHT22;1399;47.072;15.452;2023-06-10T05:55:02;19.10;89.20
2783;DHT22;1399;47.072;15.452;2023-06-10T05:57:28;19.20;89.10
2783;DHT22;1399;47.072;15.452;2023-06-10T05:59:53;19.20;88.90
2783;DHT22;1399;47.072;15.452;2023-06-10T06:02:19;19.20;88.70
2783;DHT22;1399;47.072;15.452;2023-06-10T06:04:45;19.20;88.50
2783;DHT22;1399;47.072;15.452;2023-06-10T06:07:11;19.20;88.40
2783;DHT22;1399;47.072;15.452;2023-06-10T06:09:36;19.20;88.40
2783;DHT22;1399;47.072;15.452;2023-06-10T06:12:02;19.30;88.40
2783;DHT22;1399;47.072;15.452;2023-06-10T06:14:31;19.30;88.10
2783;DHT22;1399;47.072;15.452;2023-06-10T06:16:57;19.30;87.90
2783;DHT22;1399;47.072;15.452;2023-06-10T06:19:23;19.30;87.60
2783;DHT22;1399;47.072;15.452;2023-06-10T06:21:49;19.30;87.30
2783;DHT22;1399;47.072;15.452;2023-06-10T06:24:16;19.40;87.20
2783;DHT22;1399;47.072;15.452;2023-06-10T06:26:41;19.40;86.90
2783;DHT22;1399;47.072;15.452;2023-06-10T06:29:07;19.50;86.70
2783;DHT22;1399;47.072;15.452;2023-06-10T06:31:33;19.50;86.60
2783;DHT22;1399;47.072;15.452;2023-06-10T06:33:59;19.50;86.30
2783;DHT22;1399;47.072;15.452;2023-06-10T06:36:24;19.60;86.40
2783;DHT22;1399;47.072;15.452;2023-06-10T06:38:50;19.60;86.30
2783;DHT22;1399;47.072;15.452;2023-06-10T06:41:16;19.60;86.20
2783;DHT22;1399;47.072;15.452;2023-06-10T06:43:42;19.70;86.20
2783;DHT22;1399;47.072;15.452;2023-06-10T06:46:09;19.70;86.10
2783;DHT22;1399;47.072;15.452;2023-06-10T06:48:34;19.80;86.20
2783;DHT22;1399;47.072;15.452;2023-06-10T06:51:00;19.80;86.20
2783;DHT22;1399;47.072;15.452;2023-06-10T06:53:26;19.80;86.00
2783;DHT22;1399;47.072;15.452;2023-06-10T06:55:52;19.90;86.10
2783;DHT22;1399;47.072;15.452;2023-06-10T06:58:17;19.90;86.00
2783;DHT22;1399;47.072;15.452;2023-06-10T07:00:43;20.00;86.00
2783;DHT22;1399;47.072;15.452;2023-06-10T07:03:09;20.00;85.90
2783;DHT22;1399;47.072;15.452;2023-06-10T07:05:35;20.00;85.80
2783;DHT22;1399;47.072;15.452;2023-06-10T07:08:01;20.10;85.90
2783;DHT22;1399;47.072;15.452;2023-06-10T07:10:27;20.10;85.90
2783;DHT22;1399;47.072;15.452;2023-06-10T07:12:53;20.10;85.80
2783;DHT22;1399;47.072;15.452;2023-06-10T07:15:20;20.20;85.80
2783;DHT22;1399;47.072;15.452;2023-06-10T07:17:45;20.20;85.80
2783;DHT22;1399;47.072;15.452;2023-06-10T07:20:12;20.30;85.90
2783;DHT22;1399;47.072;15.452;2023-06-10T07:22:37;20.30;85.90
2783;DHT22;1399;47.072;15.452;2023-06-10T07:25:06;20.30;85.80
2783;DHT22;1399;47.072;15.452;2023-06-10T07:27:32;20.40;85.80
2783;DHT22;1399;47.072;15.452;2023-06-10T07:29:57;20.40;85.80
2783;DHT22;1399;47.072;15.452;2023-06-10T07:32:23;20.40;85.60
2783;DHT22;1399;47.072;15.452;2023-06-10T07:34:50;20.50;85.60
2783;DHT22;1399;47.072;15.452;2023-06-10T07:37:16;20.50;85.50
2783;DHT22;1399;47.072;15.452;2023-06-10T07:39:41;20.50;85.30
2783;DHT22;1399;47.072;15.452;2023-06-10T07:42:08;20.60;85.30
2783;DHT22;1399;47.072;15.452;2023-06-10T07:44:34;20.60;85.10
2783;DHT22;1399;47.072;15.452;2023-06-10T07:47:00;20.60;84.90
2783;DHT22;1399;47.072;15.452;2023-06-10T07:49:26;20.60;84.90
2783;DHT22;1399;47.072;15.452;2023-06-10T07:51:56;20.70;84.90
2783;DHT22;1399;47.072;15.452;2023-06-10T07:54:22;20.70;84.70
2783;DHT22;1399;47.072;15.452;2023-06-10T07:56:48;20.70;84.50
2783;DHT22;1399;47.072;15.452;2023-06-10T07:59:14;20.80;84.40
2783;DHT22;1399;47.072;15.452;2023-06-10T08:01:40;20.80;84.10
2783;DHT22;1399;47.072;15.452;2023-06-10T08:04:06;20.90;84.00
2783;DHT22;1399;47.072;15.452;2023-06-10T08:06:32;21.00;83.60
2783;DHT22;1399;47.072;15.452;2023-06-10T08:08:58;21.10;83.30
2783;DHT22;1399;47.072;15.452;2023-06-10T08:11:25;21.20;82.90
2783;DHT22;1399;47.072;15.452;2023-06-10T08:13:54;21.30;82.50
2783;DHT22;1399;47.072;15.452;2023-06-10T08:16:20;21.40;82.10
2783;DHT22;1399;47.072;15.452;2023-06-10T08:18:45;21.40;81.80
2783;DHT22;1399;47.072;15.452;2023-06-10T08:21:11;21.50;81.60
2783;DHT22;1399;47.072;15.452;2023-06-10T08:23:37;21.60;81.50
2783;DHT22;1399;47.072;15.452;2023-06-10T08:26:03;21.60;81.40
2783;DHT22;1399;47.072;15.452;2023-06-10T08:28:29;21.60;81.10
2783;DHT22;1399;47.072;15.452;2023-06-10T08:30:54;21.70;81.00
2783;DHT22;1399;47.072;15.452;2023-06-10T08:33:20;21.70;80.80
2783;DHT22;1399;47.072;15.452;2023-06-10T08:35:46;21.80;80.80
2783;DHT22;1399;47.072;15.452;2023-06-10T08:38:12;21.80;80.50
2783;DHT22;1399;47.072;15.452;2023-06-10T08:40:37;21.90;80.30
2783;DHT22;1399;47.072;15.452;2023-06-10T08:43:08;21.90;80.10
2783;DHT22;1399;47.072;15.452;2023-06-10T08:45:37;22.00;80.00
2783;DHT22;1399;47.072;15.452;2023-06-10T08:48:04;22.00;79.70
2783;DHT22;1399;47.072;15.452;2023-06-10T08:50:37;22.00;79.50
2783;DHT22;1399;47.072;15.452;2023-06-10T08:53:05;22.10;79.60
2783;DHT22;1399;47.072;15.452;2023-06-10T08:55:33;22.10;79.50
2783;DHT22;1399;47.072;15.452;2023-06-10T08:58:00;22.10;79.30
2783;DHT22;1399;47.072;15.452;2023-06-10T09:00:27;22.10;79.10
2783;DHT22;1399;47.072;15.452;2023-06-10T09:02:55;22.20;78.90
2783;DHT22;1399;47.072;15.452;2023-06-10T09:05:21;22.20;78.70
2783;DHT22;1399;47.072;15.452;2023-06-10T09:07:52;22.20;78.50
2783;DHT22;1399;47.072;15.452;2023-06-10T09:10:18;22.20;78.30
2783;DHT22;1399;47.072;15.452;2023-06-10T09:12:44;22.30;78.20
2783;DHT22;1399;47.072;15.452;2023-06-10T09:15:10;22.30;78.00
2783;DHT22;1399;47.072;15.452;2023-06-10T09:17:38;22.30;77.70
2783;DHT22;1399;47.072;15.452;2023-06-10T09:20:07;22.40;77.80
2783;DHT22;1399;47.072;15.452;2023-06-10T09:22:33;22.40;77.80
2783;DHT22;1399;47.072;15.452;2023-06-10T09:25:07;22.40;77.70
2783;DHT22;1399;47.072;15.452;2023-06-10T09:27:48;22.30;77.60
2783;DHT22;1399;47.072;15.452;2023-06-10T09:30:29;22.40;77.80
2783;DHT22;1399;47.072;15.452;2023-06-10T09:32:57;22.40;77.70
2783;DHT22;1399;47.072;15.452;2023-06-10T09:35:24;22.40;77.70
2783;DHT22;1399;47.072;15.452;2023-06-10T09:37:58;22.40;77.70
2783;DHT22;1399;47.072;15.452;2023-06-10T09:40:24;22.40;77.70
2783;DHT22;1399;47.072;15.452;2023-06-10T09:42:59;22.40;77.60
2783;DHT22;1399;47.072;15.452;2023-06-10T09:45:30;22.40;77.60
2783;DHT22;1399;47.072;15.452;2023-06-10T09:47:57;22.50;77.60
2783;DHT22;1399;47.072;15.452;2023-06-10T09:50:23;22.50;77.50
2783;DHT22;1399;47.072;15.452;2023-06-10T09:52:50;22.50;77.30
2783;DHT22;1399;47.072;15.452;2023-06-10T09:55:17;22.50;77.30
2783;DHT22;1399;47.072;15.452;2023-06-10T09:57:43;22.60;77.30
2783;DHT22;1399;47.072;15.452;2023-06-10T10:00:14;22.60;77.20
2783;DHT22;1399;47.072;15.452;2023-06-10T10:02:48;22.60;77.20
2783;DHT22;1399;47.072;15.452;2023-06-10T10:05:15;22.60;77.20
2783;DHT22;1399;47.072;15.452;2023-06-10T10:07:43;22.60;77.00
2783;DHT22;1399;47.072;15.452;2023-06-10T10:10:09;22.70;77.00
2783;DHT22;1399;47.072;15.452;2023-06-10T10:12:37;22.70;76.80
2783;DHT22;1399;47.072;15.452;2023-06-10T10:15:06;22.80;76.80
2783;DHT22;1399;47.072;15.452;2023-06-10T10:17:36;22.90;76.70
2783;DHT22;1399;47.072;15.452;2023-06-10T10:20:04;22.90;76.50
2783;DHT22;1399;47.072;15.452;2023-06-10T10:22:42;23.00;76.30
2783;DHT22;1399;47.072;15.452;2023-06-10T10:25:57;23.00;76.10
2783;DHT22;1399;47.072;15.452;2023-06-10T10:28:10;23.10;76.00
2783;DHT22;1399;47.072;15.452;2023-06-10T10:30:51;23.10;75.80
2783;DHT22;1399;47.072;15.452;2023-06-10T10:36:11;23.20;75.50
2783;DHT22;1399;47.072;15.452;2023-06-10T10:38:41;23.30;75.40
2783;DHT22;1399;47.072;15.452;2023-06-10T10:41:07;23.30;75.30
2783;DHT22;1399;47.072;15.452;2023-06-10T10:43:34;23.30;75.00
2783;DHT22;1399;47.072;15.452;2023-06-10T10:46:09;23.40;75.00
2783;DHT22;1399;47.072;15.452;2023-06-10T10:48:38;23.50;74.80
2783;DHT22;1399;47.072;15.452;2023-06-10T10:51:04;23.50;74.70
2783;DHT22;1399;47.072;15.452;2023-06-10T10:53:30;23.50;74.50
2783;DHT22;1399;47.072;15.452;2023-06-10T10:56:15;23.60;74.50
2783;DHT22;1399;47.072;15.452;2023-06-10T10:59:06;23.60;74.30
2783;DHT22;1399;47.072;15.452;2023-06-10T11:01:42;23.60;74.20
2783;DHT22;1399;47.072;15.452;2023-06-10T11:04:12;23.70;74.20
2783;DHT22;1399;47.072;15.452;2023-06-10T11:06:38;23.70;74.00
2783;DHT22;1399;47.072;15.452;2023-06-10T11:09:26;23.70;73.90
2783;DHT22;1399;47.072;15.452;2023-06-10T11:11:57;23.70;73.70
2783;DHT22;1399;47.072;15.452;2023-06-10T11:14:28;23.80;73.50
2783;DHT22;1399;47.072;15.452;2023-06-10T11:16:57;23.80;73.40
2783;DHT22;1399;47.072;15.452;2023-06-10T11:19:37;23.80;73.20
2783;DHT22;1399;47.072;15.452;2023-06-10T11:22:07;23.80;73.20
2783;DHT22;1399;47.072;15.452;2023-06-10T11:24:35;23.90;73.20
2783;DHT22;1399;47.072;15.452;2023-06-10T11:27:23;23.90;72.80
2783;DHT22;1399;47.072;15.452;2023-06-10T11:32:32;24.00;72.50
2783;DHT22;1399;47.072;15.452;2023-06-10T11:34:59;24.00;72.30
2783;DHT22;1399;47.072;15.452;2023-06-10T11:37:25;24.00;72.20
2783;DHT22;1399;47.072;15.452;2023-06-10T11:39:54;24.00;72.20
2783;DHT22;1399;47.072;15.452;2023-06-10T11:42:22;24.10;72.00
2783;DHT22;1399;47.072;15.452;2023-06-10T11:44:52;24.10;71.80
2783;DHT22;1399;47.072;15.452;2023-06-10T11:47:19;24.10;71.80
2783;DHT22;1399;47.072;15.452;2023-06-10T11:49:46;24.10;71.60
2783;DHT22;1399;47.072;15.452;2023-06-10T11:52:12;24.10;71.40
2783;DHT22;1399;47.072;15.452;2023-06-10T11:54:38;24.10;71.40
2783;DHT22;1399;47.072;15.452;2023-06-10T11:57:04;24.10;71.30
2783;DHT22;1399;47.072;15.452;2023-06-10T11:59:31;24.10;71.30
2783;DHT22;1399;47.072;15.452;2023-06-10T12:01:57;24.10;71.30
2783;DHT22;1399;47.072;15.452;2023-06-10T12:04:24;24.10;71.30
2783;DHT22;1399;47.072;15.452;2023-06-10T12:06:53;24.10;71.20
2783;DHT22;1399;47.072;15.452;2023-06-10T12:09:22;24.10;71.20
2783;DHT22;1399;47.072;15.452;2023-06-10T12:12:08;24.10;71.10
2783;DHT22;1399;47.072;15.452;2023-06-10T12:20:00;24.10;71.10
2783;DHT22;1399;47.072;15.452;2023-06-10T12:22:26;24.10;71.00
2783;DHT22;1399;47.072;15.452;2023-06-10T12:25:00;24.10;70.90
2783;DHT22;1399;47.072;15.452;2023-06-10T12:27:27;24.20;70.70
2783;DHT22;1399;47.072;15.452;2023-06-10T12:29:57;24.30;70.30
2783;DHT22;1399;47.072;15.452;2023-06-10T12:32:40;24.30;69.90
2783;DHT22;1399;47.072;15.452;2023-06-10T12:35:07;24.40;69.80
2783;DHT22;1399;47.072;15.452;2023-06-10T12:37:33;24.30;69.60
2783;DHT22;1399;47.072;15.452;2023-06-10T12:40:04;24.30;69.70
2783;DHT22;1399;47.072;15.452;2023-06-10T12:42:31;24.20;69.70
2783;DHT22;1399;47.072;15.452;2023-06-10T12:44:59;24.20;69.90
2783;DHT22;1399;47.072;15.452;2023-06-10T12:47:31;24.10;69.90
2783;DHT22;1399;47.072;15.452;2023-06-10T12:49:59;24.10;70.00
2783;DHT22;1399;47.072;15.452;2023-06-10T12:52:25;24.10;70.10
2783;DHT22;1399;47.072;15.452;2023-06-10T12:54:52;24.10;70.20
2783;DHT22;1399;47.072;15.452;2023-06-10T12:57:18;24.00;70.20
2783;DHT22;1399;47.072;15.452;2023-06-10T12:59:44;24.00;70.40
2783;DHT22;1399;47.072;15.452;2023-06-10T13:02:16;24.10;70.50
2783;DHT22;1399;47.072;15.452;2023-06-10T13:04:44;24.10;70.60
2783;DHT22;1399;47.072;15.452;2023-06-10T13:07:10;24.10;70.70
2783;DHT22;1399;47.072;15.452;2023-06-10T13:09:36;24.10;70.70
2783;DHT22;1399;47.072;15.452;2023-06-10T13:12:02;24.10;70.90
2783;DHT22;1399;47.072;15.452;2023-06-10T13:14:28;24.10;71.00
2783;DHT22;1399;47.072;15.452;2023-06-10T13:16:55;24.10;71.10
2783;DHT22;1399;47.072;15.452;2023-06-10T13:19:21;24.10;71.20
2783;DHT22;1399;47.072;15.452;2023-06-10T13:21:49;24.10;71.30
2783;DHT22;1399;47.072;15.452;2023-06-10T13:24:15;24.10;71.50
2783;DHT22;1399;47.072;15.452;2023-06-10T13:26:41;24.00;71.50
2783;DHT22;1399;47.072;15.452;2023-06-10T13:29:06;24.00;71.70
2783;DHT22;1399;47.072;15.452;2023-06-10T13:31:33;24.00;71.80
2783;DHT22;1399;47.072;15.452;2023-06-10T13:33:59;24.00;72.00
2783;DHT22;1399;47.072;15.452;2023-06-10T13:36:25;23.90;72.20
2783;DHT22;1399;47.072;15.452;2023-06-10T13:38:51;23.90;72.30
2783;DHT22;1399;47.072;15.452;2023-06-10T13:41:17;23.90;72.60
2783;DHT22;1399;47.072;15.452;2023-06-10T13:43:43;23.80;72.60
2783;DHT22;1399;47.072;15.452;2023-06-10T13:46:09;23.80;72.60
2783;DHT22;1399;47.072;15.452;2023-06-10T13:48:34;23.80;72.60
2783;DHT22;1399;47.072;15.452;2023-06-10T13:51:00;23.80;72.50
2783;DHT22;1399;47.072;15.452;2023-06-10T13:53:26;23.80;72.40
2783;DHT22;1399;47.072;15.452;2023-06-10T13:55:52;23.80;72.30
2783;DHT22;1399;47.072;15.452;2023-06-10T13:58:18;23.70;72.20
2783;DHT22;1399;47.072;15.452;2023-06-10T14:00:43;23.60;72.30
2783;DHT22;1399;47.072;15.452;2023-06-10T14:03:09;23.60;72.50
2783;DHT22;1399;47.072;15.452;2023-06-10T14:05:35;23.50;72.50
2783;DHT22;1399;47.072;15.452;2023-06-10T14:08:01;23.40;72.70
2783;DHT22;1399;47.072;15.452;2023-06-10T14:10:26;23.40;73.00
2783;DHT22;1399;47.072;15.452;2023-06-10T14:12:52;23.30;73.00
2783;DHT22;1399;47.072;15.452;2023-06-10T14:15:19;23.30;73.30
2783;DHT22;1399;47.072;15.452;2023-06-10T14:17:45;23.30;73.40
2783;DHT22;1399;47.072;15.452;2023-06-10T14:20:11;23.20;73.50
2783;DHT22;1399;47.072;15.452;2023-06-10T14:22:37;23.20;73.90
2783;DHT22;1399;47.072;15.452;2023-06-10T14:25:03;23.10;74.20
2783;DHT22;1399;47.072;15.452;2023-06-10T14:27:29;23.00;74.50
2783;DHT22;1399;47.072;15.452;2023-06-10T14:29:55;23.00;74.80
2783;DHT22;1399;47.072;15.452;2023-06-10T14:32:21;22.90;75.10
2783;DHT22;1399;47.072;15.452;2023-06-10T14:34:46;22.90;75.50
2783;DHT22;1399;47.072;15.452;2023-06-10T14:37:12;22.90;75.80
2783;DHT22;1399;47.072;15.452;2023-06-10T14:39:38;22.80;76.00
2783;DHT22;1399;47.072;15.452;2023-06-10T14:42:04;22.80;77.10
2783;DHT22;1399;47.072;15.452;2023-06-10T14:44:30;22.80;76.30
2783;DHT22;1399;47.072;15.452;2023-06-10T14:46:56;22.80;76.30
2783;DHT22;1399;47.072;15.452;2023-06-10T14:49:22;22.80;76.30
2783;DHT22;1399;47.072;15.452;2023-06-10T14:51:48;22.80;76.20
2783;DHT22;1399;47.072;15.452;2023-06-10T14:54:15;22.70;76.10
2783;DHT22;1399;47.072;15.452;2023-06-10T14:56:41;22.70;76.10
2783;DHT22;1399;47.072;15.452;2023-06-10T14:59:07;22.80;76.10
2783;DHT22;1399;47.072;15.452;2023-06-10T15:01:33;22.70;75.90
2783;DHT22;1399;47.072;15.452;2023-06-10T15:03:59;22.70;75.90
2783;DHT22;1399;47.072;15.452;2023-06-10T15:06:24;22.70;75.90
2783;DHT22;1399;47.072;15.452;2023-06-10T15:08:50;22.70;76.00
2783;DHT22;1399;47.072;15.452;2023-06-10T15:11:16;22.70;76.20
2783;DHT22;1399;47.072;15.452;2023-06-10T15:13:42;22.60;76.40
2783;DHT22;1399;47.072;15.452;2023-06-10T15:16:08;22.60;76.40
2783;DHT22;1399;47.072;15.452;2023-06-10T15:18:33;22.60;76.60
2783;DHT22;1399;47.072;15.452;2023-06-10T15:20:59;22.50;76.70
2783;DHT22;1399;47.072;15.452;2023-06-10T15:23:25;22.50;76.90
2783;DHT22;1399;47.072;15.452;2023-06-10T15:25:51;22.50;77.10
2783;DHT22;1399;47.072;15.452;2023-06-10T15:28:17;22.40;77.30
2783;DHT22;1399;47.072;15.452;2023-06-10T15:30:43;22.40;77.50
2783;DHT22;1399;47.072;15.452;2023-06-10T15:33:08;22.40;77.70
2783;DHT22;1399;47.072;15.452;2023-06-10T15:35:34;22.40;77.80
2783;DHT22;1399;47.072;15.452;2023-06-10T15:38:00;22.40;77.90
2783;DHT22;1399;47.072;15.452;2023-06-10T15:40:26;22.40;77.90
2783;DHT22;1399;47.072;15.452;2023-06-10T15:42:51;22.40;77.90
2783;DHT22;1399;47.072;15.452;2023-06-10T15:45:17;22.40;78.00
2783;DHT22;1399;47.072;15.452;2023-06-10T15:47:43;22.40;78.20
2783;DHT22;1399;47.072;15.452;2023-06-10T15:50:09;22.40;79.20
2783;DHT22;1399;47.072;15.452;2023-06-10T15:52:35;22.40;78.40
2783;DHT22;1399;47.072;15.452;2023-06-10T15:55:01;22.40;78.70
2783;DHT22;1399;47.072;15.452;2023-06-10T15:57:28;22.40;78.90
2783;DHT22;1399;47.072;15.452;2023-06-10T15:59:54;22.40;79.10
2783;DHT22;1399;47.072;15.452;2023-06-10T16:02:20;22.30;79.20